sensor_id;sensor_type;location;lat;lon;timestamp;P1;durP1;ratioP1;P2;durP2;ratioP2
23814;SDS011;12088;53.078;8.720;2023-12-22T00:00:16;7.80;;;2.07;;
23814;SDS011;12088;53.078;8.720;2023-12-22T00:02:42;8.53;;;1.93;;
23814;SDS011;12088;53.078;8.720;2023-12-22T00:05:08;6.90;;;1.97;;
23814;SDS011;12088;53.078;8.720;2023-12-22T00:07:34;7.93;;;2.63;;
23814;SDS011;12088;53.078;8.720;2023-12-22T00:10:00;15.13;;;2.90;;
23814;SDS011;12088;53.078;8.720;2023-12-22T00:12:26;9.30;;;2.67;;
23814;SDS011;12088;53.078;8.720;2023-12-22T00:14:53;14.70;;;2.93;;
23814;SDS011;12088;53.078;8.720;2023-12-22T00:17:19;8.43;;;2.00;;
23814;SDS011;12088;53.078;8.720;2023-12-22T00:19:45;10.17;;;2.57;;
23814;SDS011;12088;53.078;8.720;2023-12-22T00:22:11;13.30;;;2.33;;
23814;SDS011;12088;53.078;8.720;2023-12-22T00:24:37;14.27;;;2.17;;
23814;SDS011;12088;53.078;8.720;2023-12-22T00:27:04;11.60;;;2.83;;
23814;SDS011;12088;53.078;8.720;2023-12-22T00:29:30;11.13;;;3.27;;
23814;SDS011;12088;53.078;8.720;2023-12-22T00:31:56;8.83;;;2.80;;
23814;SDS011;12088;53.078;8.720;2023-12-22T00:34:22;11.00;;;2.00;;
23814;SDS011;12088;53.078;8.720;2023-12-22T00:36:48;5.93;;;1.50;;
23814;SDS011;12088;53.078;8.720;2023-12-22T00:39:14;11.47;;;2.50;;
23814;SDS011;12088;53.078;8.720;2023-12-22T00:41:40;7.53;;;2.60;;
23814;SDS011;12088;53.078;8.720;2023-12-22T00:44:06;7.43;;;1.97;;
23814;SDS011;12088;53.078;8.720;2023-12-22T00:46:32;8.20;;;2.07;;
23814;SDS011;12088;53.078;8.720;2023-12-22T00:48:58;8.50;;;2.10;;
23814;SDS011;12088;53.078;8.720;2023-12-22T00:51:24;6.63;;;1.80;;
23814;SDS011;12088;53.078;8.720;2023-12-22T00:53:50;7.57;;;1.57;;
23814;SDS011;12088;53.078;8.720;2023-12-22T00:56:16;4.43;;;2.17;;
23814;SDS011;12088;53.078;8.720;2023-12-22T00:58:42;15.87;;;2.10;;
23814;SDS011;12088;53.078;8.720;2023-12-22T01:01:07;9.03;;;2.10;;
23814;SDS011;12088;53.078;8.720;2023-12-22T01:03:33;7.03;;;2.60;;
23814;SDS011;12088;53.078;8.720;2023-12-22T01:05:59;7.97;;;2.27;;
23814;SDS011;12088;53.078;8.720;2023-12-22T01:08:25;12.10;;;2.87;;
23814;SDS011;12088;53.078;8.720;2023-12-22T01:10:51;8.00;;;2.47;;
23814;SDS011;12088;53.078;8.720;2023-12-22T01:13:17;8.53;;;2.27;;
23814;SDS011;12088;53.078;8.720;2023-12-22T01:15:43;14.47;;;2.53;;
23814;SDS011;12088;53.078;8.720;2023-12-22T01:18:10;15.77;;;2.60;;
23814;SDS011;12088;53.078;8.720;2023-12-22T01:20:36;10.60;;;2.43;;
23814;SDS011;12088;53.078;8.720;2023-12-22T01:23:02;16.90;;;3.30;;
23814;SDS011;12088;53.078;8.720;2023-12-22T01:25:28;13.50;;;2.70;;
23814;SDS011;12088;53.078;8.720;2023-12-22T01:27:54;13.17;;;2.17;;
23814;SDS011;12088;53.078;8.720;2023-12-22T01:30:20;9.67;;;2.27;;
23814;SDS011;12088;53.078;8.720;2023-12-22T01:32:46;10.43;;;3.17;;
23814;SDS011;12088;53.078;8.720;2023-12-22T01:35:12;8.47;;;2.60;;
23814;SDS011;12088;53.078;8.720;2023-12-22T01:37:39;9.80;;;2.30;;
23814;SDS011;12088;53.078;8.720;2023-12-22T01:40:05;12.80;;;2.23;;
23814;SDS011;12088;53.078;8.720;2023-12-22T01:42:32;8.50;;;1.87;;
23814;SDS011;12088;53.078;8.720;2023-12-22T01:44:58;14.67;;;2.77;;
23814;SDS011;12088;53.078;8.720;2023-12-22T01:47:23;10.60;;;2.47;;
23814;SDS011;12088;53.078;8.720;2023-12-22T01:49:50;13.43;;;2.50;;
23814;SDS011;12088;53.078;8.720;2023-12-22T01:52:16;15.27;;;2.90;;
23814;SDS011;12088;53.078;8.720;2023-12-22T01:54:42;10.33;;;2.33;;
23814;SDS011;12088;53.078;8.720;2023-12-22T01:57:08;15.43;;;2.73;;
23814;SDS011;12088;53.078;8.720;2023-12-22T01:59:35;10.23;;;2.53;;
23814;SDS011;12088;53.078;8.720;2023-12-22T02:02:02;6.60;;;2.03;;
23814;SDS011;12088;53.078;8.720;2023-12-22T02:04:28;4.63;;;2.07;;
23814;SDS011;12088;53.078;8.720;2023-12-22T02:06:57;6.63;;;1.87;;
23814;SDS011;12088;53.078;8.720;2023-12-22T02:09:23;5.50;;;2.10;;
23814;SDS011;12088;53.078;8.720;2023-12-22T02:11:49;2.67;;;1.03;;
23814;SDS011;12088;53.078;8.720;2023-12-22T02:14:15;3.57;;;1.17;;
23814;SDS011;12088;53.078;8.720;2023-12-22T02:16:43;2.57;;;1.43;;
23814;SDS011;12088;53.078;8.720;2023-12-22T02:19:15;6.37;;;1.50;;
23814;SDS011;12088;53.078;8.720;2023-12-22T02:22:00;3.10;;;1.30;;
23814;SDS011;12088;53.078;8.720;2023-12-22T02:24:26;7.87;;;2.47;;
23814;SDS011;12088;53.078;8.720;2023-12-22T02:26:52;4.37;;;1.70;;
23814;SDS011;12088;53.078;8.720;2023-12-22T02:29:21;9.70;;;2.90;;
23814;SDS011;12088;53.078;8.720;2023-12-22T02:31:48;7.13;;;2.10;;
23814;SDS011;12088;53.078;8.720;2023-12-22T02:34:18;7.37;;;2.57;;
23814;SDS011;12088;53.078;8.720;2023-12-22T02:36:44;10.70;;;2.40;;
23814;SDS011;12088;53.078;8.720;2023-12-22T02:39:11;11.87;;;2.17;;
23814;SDS011;12088;53.078;8.720;2023-12-22T02:41:38;7.47;;;2.07;;
23814;SDS011;12088;53.078;8.720;2023-12-22T02:44:04;10.53;;;2.33;;
23814;SDS011;12088;53.078;8.720;2023-12-22T02:46:31;11.30;;;2.37;;
23814;SDS011;12088;53.078;8.720;2023-12-22T02:48:57;16.23;;;2.73;;
23814;SDS011;12088;53.078;8.720;2023-12-22T02:51:23;11.93;;;2.43;;
23814;SDS011;12088;53.078;8.720;2023-12-22T02:53:49;9.53;;;2.77;;
23814;SDS011;12088;53.078;8.720;2023-12-22T02:56:15;10.70;;;2.50;;
23814;SDS011;12088;53.078;8.720;2023-12-22T02:58:41;11.50;;;2.37;;
23814;SDS011;12088;53.078;8.720;2023-12-22T03:01:07;11.10;;;2.30;;
23814;SDS011;12088;53.078;8.720;2023-12-22T03:03:33;10.97;;;2.97;;
23814;SDS011;12088;53.078;8.720;2023-12-22T03:05:59;13.43;;;2.20;;
23814;SDS011;12088;53.078;8.720;2023-12-22T03:08:25;8.70;;;2.17;;
23814;SDS011;12088;53.078;8.720;2023-12-22T03:10:51;11.93;;;2.37;;
23814;SDS011;12088;53.078;8.720;2023-12-22T03:13:17;12.20;;;3.17;;
23814;SDS011;12088;53.078;8.720;2023-12-22T03:15:43;12.27;;;2.77;;
23814;SDS011;12088;53.078;8.720;2023-12-22T03:18:09;12.20;;;2.60;;
23814;SDS011;12088;53.078;8.720;2023-12-22T03:20:35;14.57;;;3.10;;
23814;SDS011;12088;53.078;8.720;2023-12-22T03:23:01;13.10;;;2.50;;
23814;SDS011;12088;53.078;8.720;2023-12-22T03:25:26;11.77;;;2.50;;
23814;SDS011;12088;53.078;8.720;2023-12-22T03:27:52;13.97;;;2.97;;
23814;SDS011;12088;53.078;8.720;2023-12-22T03:30:18;14.47;;;2.53;;
23814;SDS011;12088;53.078;8.720;2023-12-22T03:32:44;17.57;;;3.07;;
23814;SDS011;12088;53.078;8.720;2023-12-22T03:35:10;16.57;;;3.50;;
23814;SDS011;12088;53.078;8.720;2023-12-22T03:37:36;9.60;;;2.07;;
23814;SDS011;12088;53.078;8.720;2023-12-22T03:40:02;12.20;;;2.13;;
23814;SDS011;12088;53.078;8.720;2023-12-22T03:42:28;10.30;;;2.93;;
23814;SDS011;12088;53.078;8.720;2023-12-22T03:44:54;8.73;;;1.90;;
23814;SDS011;12088;53.078;8.720;2023-12-22T03:47:20;8.87;;;2.03;;
23814;SDS011;12088;53.078;8.720;2023-12-22T03:49:47;10.63;;;2.63;;
23814;SDS011;12088;53.078;8.720;2023-12-22T03:52:13;8.97;;;3.17;;
23814;SDS011;12088;53.078;8.720;2023-12-22T03:54:39;6.63;;;1.97;;
23814;SDS011;12088;53.078;8.720;2023-12-22T03:57:05;4.90;;;1.83;;
23814;SDS011;12088;53.078;8.720;2023-12-22T03:59:31;7.30;;;2.03;;
23814;SDS011;12088;53.078;8.720;2023-12-22T04:01:57;11.37;;;2.73;;
23814;SDS011;12088;53.078;8.720;2023-12-22T04:04:26;6.80;;;1.73;;
23814;SDS011;12088;53.078;8.720;2023-12-22T04:06:53;10.60;;;2.17;;
23814;SDS011;12088;53.078;8.720;2023-12-22T04:09:19;8.47;;;2.07;;
23814;SDS011;12088;53.078;8.720;2023-12-22T04:11:45;5.60;;;1.63;;
23814;SDS011;12088;53.078;8.720;2023-12-22T04:14:11;9.77;;;2.70;;
23814;SDS011;12088;53.078;8.720;2023-12-22T04:16:37;7.13;;;1.90;;
23814;SDS011;12088;53.078;8.720;2023-12-22T04:19:03;12.50;;;2.10;;
23814;SDS011;12088;53.078;8.720;2023-12-22T04:21:29;15.73;;;2.30;;
23814;SDS011;12088;53.078;8.720;2023-12-22T04:23:55;14.47;;;2.90;;
23814;SDS011;12088;53.078;8.720;2023-12-22T04:26:21;12.57;;;3.43;;
23814;SDS011;12088;53.078;8.720;2023-12-22T04:28:47;6.97;;;2.53;;
23814;SDS011;12088;53.078;8.720;2023-12-22T04:31:13;15.23;;;2.70;;
23814;SDS011;12088;53.078;8.720;2023-12-22T04:33:39;13.50;;;2.87;;
23814;SDS011;12088;53.078;8.720;2023-12-22T04:36:05;14.40;;;3.53;;
23814;SDS011;12088;53.078;8.720;2023-12-22T04:38:31;15.07;;;3.10;;
23814;SDS011;12088;53.078;8.720;2023-12-22T04:40:57;15.27;;;3.63;;
23814;SDS011;12088;53.078;8.720;2023-12-22T04:43:23;14.80;;;3.03;;
23814;SDS011;12088;53.078;8.720;2023-12-22T04:45:49;13.30;;;3.43;;
23814;SDS011;12088;53.078;8.720;2023-12-22T04:48:15;12.70;;;2.70;;
23814;SDS011;12088;53.078;8.720;2023-12-22T04:50:41;16.90;;;3.67;;
23814;SDS011;12088;53.078;8.720;2023-12-22T04:53:07;17.87;;;3.27;;
23814;SDS011;12088;53.078;8.720;2023-12-22T04:55:33;20.07;;;3.87;;
23814;SDS011;12088;53.078;8.720;2023-12-22T04:57:59;16.97;;;3.10;;
23814;SDS011;12088;53.078;8.720;2023-12-22T05:00:25;22.20;;;3.57;;
23814;SDS011;12088;53.078;8.720;2023-12-22T05:02:51;16.90;;;3.20;;
23814;SDS011;12088;53.078;8.720;2023-12-22T05:05:17;19.17;;;3.67;;
23814;SDS011;12088;53.078;8.720;2023-12-22T05:07:43;15.13;;;2.97;;
23814;SDS011;12088;53.078;8.720;2023-12-22T05:10:09;19.40;;;4.00;;
23814;SDS011;12088;53.078;8.720;2023-12-22T05:12:35;16.23;;;2.80;;
23814;SDS011;12088;53.078;8.720;2023-12-22T05:15:01;17.63;;;3.60;;
23814;SDS011;12088;53.078;8.720;2023-12-22T05:17:28;13.30;;;2.93;;
23814;SDS011;12088;53.078;8.720;2023-12-22T05:19:57;10.03;;;3.47;;
23814;SDS011;12088;53.078;8.720;2023-12-22T05:22:23;9.33;;;2.60;;
23814;SDS011;12088;53.078;8.720;2023-12-22T05:24:49;11.80;;;3.00;;
23814;SDS011;12088;53.078;8.720;2023-12-22T05:27:15;17.20;;;3.33;;
23814;SDS011;12088;53.078;8.720;2023-12-22T05:29:41;8.60;;;2.80;;
23814;SDS011;12088;53.078;8.720;2023-12-22T05:32:07;8.30;;;2.50;;
23814;SDS011;12088;53.078;8.720;2023-12-22T05:34:33;11.03;;;2.90;;
23814;SDS011;12088;53.078;8.720;2023-12-22T05:36:59;9.07;;;2.53;;
23814;SDS011;12088;53.078;8.720;2023-12-22T05:39:25;12.70;;;2.90;;
23814;SDS011;12088;53.078;8.720;2023-12-22T05:41:51;15.87;;;4.13;;
23814;SDS011;12088;53.078;8.720;2023-12-22T05:44:17;11.67;;;2.20;;
23814;SDS011;12088;53.078;8.720;2023-12-22T05:46:44;9.83;;;2.27;;
23814;SDS011;12088;53.078;8.720;2023-12-22T05:49:09;6.17;;;2.43;;
23814;SDS011;12088;53.078;8.720;2023-12-22T05:51:39;6.37;;;1.40;;
23814;SDS011;12088;53.078;8.720;2023-12-22T05:54:06;7.43;;;1.70;;
23814;SDS011;12088;53.078;8.720;2023-12-22T05:56:32;6.33;;;2.10;;
23814;SDS011;12088;53.078;8.720;2023-12-22T05:58:58;4.50;;;1.40;;
23814;SDS011;12088;53.078;8.720;2023-12-22T06:01:24;15.20;;;2.07;;
23814;SDS011;12088;53.078;8.720;2023-12-22T06:03:50;7.80;;;1.87;;
23814;SDS011;12088;53.078;8.720;2023-12-22T06:06:17;9.77;;;1.80;;
23814;SDS011;12088;53.078;8.720;2023-12-22T06:08:43;13.73;;;2.47;;
23814;SDS011;12088;53.078;8.720;2023-12-22T06:11:09;8.40;;;2.60;;
23814;SDS011;12088;53.078;8.720;2023-12-22T06:13:35;9.17;;;2.57;;
23814;SDS011;12088;53.078;8.720;2023-12-22T06:16:01;8.47;;;2.70;;
23814;SDS011;12088;53.078;8.720;2023-12-22T06:18:27;7.90;;;2.27;;
23814;SDS011;12088;53.078;8.720;2023-12-22T06:20:53;9.30;;;2.43;;
23814;SDS011;12088;53.078;8.720;2023-12-22T06:23:19;5.07;;;1.97;;
23814;SDS011;12088;53.078;8.720;2023-12-22T06:25:45;5.23;;;2.20;;
23814;SDS011;12088;53.078;8.720;2023-12-22T06:28:12;7.37;;;1.70;;
23814;SDS011;12088;53.078;8.720;2023-12-22T06:30:38;5.60;;;1.83;;
23814;SDS011;12088;53.078;8.720;2023-12-22T06:33:04;12.13;;;2.20;;
23814;SDS011;12088;53.078;8.720;2023-12-22T06:35:30;8.70;;;2.37;;
23814;SDS011;12088;53.078;8.720;2023-12-22T06:37:58;19.27;;;2.77;;
23814;SDS011;12088;53.078;8.720;2023-12-22T06:40:28;13.77;;;2.97;;
23814;SDS011;12088;53.078;8.720;2023-12-22T06:42:54;11.90;;;2.83;;
23814;SDS011;12088;53.078;8.720;2023-12-22T06:45:20;16.33;;;3.10;;
23814;SDS011;12088;53.078;8.720;2023-12-22T06:47:46;7.80;;;2.10;;
23814;SDS011;12088;53.078;8.720;2023-12-22T06:50:12;9.77;;;2.37;;
23814;SDS011;12088;53.078;8.720;2023-12-22T06:52:38;14.23;;;2.20;;
23814;SDS011;12088;53.078;8.720;2023-12-22T06:55:04;11.03;;;2.90;;
23814;SDS011;12088;53.078;8.720;2023-12-22T06:57:30;10.90;;;2.70;;
23814;SDS011;12088;53.078;8.720;2023-12-22T06:59:57;11.97;;;3.03;;
23814;SDS011;12088;53.078;8.720;2023-12-22T07:02:23;12.97;;;3.27;;
23814;SDS011;12088;53.078;8.720;2023-12-22T07:07:33;13.63;;;3.27;;
23814;SDS011;12088;53.078;8.720;2023-12-22T07:09:59;15.87;;;3.27;;
23814;SDS011;12088;53.078;8.720;2023-12-22T07:12:25;19.63;;;3.57;;
23814;SDS011;12088;53.078;8.720;2023-12-22T07:14:51;12.43;;;2.60;;
23814;SDS011;12088;53.078;8.720;2023-12-22T07:17:17;17.50;;;3.10;;
23814;SDS011;12088;53.078;8.720;2023-12-22T07:19:43;16.87;;;2.97;;
23814;SDS011;12088;53.078;8.720;2023-12-22T07:22:09;11.80;;;2.73;;
23814;SDS011;12088;53.078;8.720;2023-12-22T07:24:35;21.50;;;3.53;;
23814;SDS011;12088;53.078;8.720;2023-12-22T07:27:02;18.80;;;3.60;;
23814;SDS011;12088;53.078;8.720;2023-12-22T07:29:28;21.43;;;3.80;;
23814;SDS011;12088;53.078;8.720;2023-12-22T07:31:54;21.40;;;3.87;;
23814;SDS011;12088;53.078;8.720;2023-12-22T07:34:20;16.17;;;3.63;;
23814;SDS011;12088;53.078;8.720;2023-12-22T07:36:47;14.40;;;2.73;;
23814;SDS011;12088;53.078;8.720;2023-12-22T07:39:13;16.67;;;2.93;;
23814;SDS011;12088;53.078;8.720;2023-12-22T07:41:39;16.63;;;2.77;;
23814;SDS011;12088;53.078;8.720;2023-12-22T07:44:05;24.20;;;4.17;;
23814;SDS011;12088;53.078;8.720;2023-12-22T07:46:31;18.50;;;3.97;;
23814;SDS011;12088;53.078;8.720;2023-12-22T07:48:57;19.80;;;3.70;;
23814;SDS011;12088;53.078;8.720;2023-12-22T07:51:24;24.47;;;4.13;;
23814;SDS011;12088;53.078;8.720;2023-12-22T07:53:50;13.50;;;3.90;;
23814;SDS011;12088;53.078;8.720;2023-12-22T07:56:16;18.87;;;4.00;;
23814;SDS011;12088;53.078;8.720;2023-12-22T07:58:42;21.83;;;3.70;;
23814;SDS011;12088;53.078;8.720;2023-12-22T08:01:07;26.07;;;3.97;;
23814;SDS011;12088;53.078;8.720;2023-12-22T08:03:33;19.43;;;4.40;;
23814;SDS011;12088;53.078;8.720;2023-12-22T08:06:00;16.47;;;3.73;;
23814;SDS011;12088;53.078;8.720;2023-12-22T08:08:26;16.03;;;3.97;;
23814;SDS011;12088;53.078;8.720;2023-12-22T08:10:51;15.93;;;3.87;;
23814;SDS011;12088;53.078;8.720;2023-12-22T08:13:17;15.03;;;5.10;;
23814;SDS011;12088;53.078;8.720;2023-12-22T08:15:44;20.87;;;3.87;;
23814;SDS011;12088;53.078;8.720;2023-12-22T08:18:10;12.33;;;3.03;;
23814;SDS011;12088;53.078;8.720;2023-12-22T08:20:36;22.40;;;3.43;;
23814;SDS011;12088;53.078;8.720;2023-12-22T08:23:02;17.20;;;3.13;;
23814;SDS011;12088;53.078;8.720;2023-12-22T08:25:28;20.23;;;4.43;;
23814;SDS011;12088;53.078;8.720;2023-12-22T08:27:54;12.83;;;2.80;;
23814;SDS011;12088;53.078;8.720;2023-12-22T08:30:20;27.40;;;3.90;;
23814;SDS011;12088;53.078;8.720;2023-12-22T08:32:46;30.50;;;5.47;;
23814;SDS011;12088;53.078;8.720;2023-12-22T08:35:12;18.93;;;3.57;;
23814;SDS011;12088;53.078;8.720;2023-12-22T08:37:38;19.90;;;4.03;;
23814;SDS011;12088;53.078;8.720;2023-12-22T08:40:04;15.50;;;4.30;;
23814;SDS011;12088;53.078;8.720;2023-12-22T08:42:31;18.13;;;3.87;;
23814;SDS011;12088;53.078;8.720;2023-12-22T08:44:56;30.57;;;5.27;;
23814;SDS011;12088;53.078;8.720;2023-12-22T08:47:22;21.03;;;4.03;;
23814;SDS011;12088;53.078;8.720;2023-12-22T08:49:48;20.23;;;4.03;;
23814;SDS011;12088;53.078;8.720;2023-12-22T08:52:14;19.60;;;3.63;;
23814;SDS011;12088;53.078;8.720;2023-12-22T08:54:40;21.70;;;3.70;;
23814;SDS011;12088;53.078;8.720;2023-12-22T08:57:06;16.93;;;3.30;;
23814;SDS011;12088;53.078;8.720;2023-12-22T08:59:34;26.03;;;4.57;;
23814;SDS011;12088;53.078;8.720;2023-12-22T09:02:00;20.43;;;3.67;;
23814;SDS011;12088;53.078;8.720;2023-12-22T09:04:32;20.73;;;4.17;;
23814;SDS011;12088;53.078;8.720;2023-12-22T09:06:58;10.43;;;3.03;;
23814;SDS011;12088;53.078;8.720;2023-12-22T09:09:24;14.93;;;3.03;;
23814;SDS011;12088;53.078;8.720;2023-12-22T09:11:51;7.23;;;1.77;;
23814;SDS011;12088;53.078;8.720;2023-12-22T09:14:17;7.47;;;4.63;;
23814;SDS011;12088;53.078;8.720;2023-12-22T09:16:43;12.17;;;2.27;;
23814;SDS011;12088;53.078;8.720;2023-12-22T09:19:10;9.43;;;2.47;;
23814;SDS011;12088;53.078;8.720;2023-12-22T09:21:36;7.77;;;2.13;;
23814;SDS011;12088;53.078;8.720;2023-12-22T09:24:02;12.23;;;2.53;;
23814;SDS011;12088;53.078;8.720;2023-12-22T09:26:29;13.77;;;2.93;;
23814;SDS011;12088;53.078;8.720;2023-12-22T09:28:55;8.83;;;2.00;;
23814;SDS011;12088;53.078;8.720;2023-12-22T09:31:21;9.53;;;2.07;;
23814;SDS011;12088;53.078;8.720;2023-12-22T09:33:47;7.40;;;2.07;;
23814;SDS011;12088;53.078;8.720;2023-12-22T09:36:13;6.20;;;1.90;;
23814;SDS011;12088;53.078;8.720;2023-12-22T09:38:39;6.77;;;1.57;;
23814;SDS011;12088;53.078;8.720;2023-12-22T09:41:06;7.93;;;2.00;;
23814;SDS011;12088;53.078;8.720;2023-12-22T09:43:33;8.60;;;2.30;;
23814;SDS011;12088;53.078;8.720;2023-12-22T09:46:01;9.00;;;2.57;;
23814;SDS011;12088;53.078;8.720;2023-12-22T09:48:28;14.00;;;2.50;;
23814;SDS011;12088;53.078;8.720;2023-12-22T09:50:55;8.50;;;2.20;;
23814;SDS011;12088;53.078;8.720;2023-12-22T09:53:21;8.33;;;2.37;;
23814;SDS011;12088;53.078;8.720;2023-12-22T09:55:49;7.67;;;2.10;;
23814;SDS011;12088;53.078;8.720;2023-12-22T09:58:15;15.73;;;3.83;;
23814;SDS011;12088;53.078;8.720;2023-12-22T10:00:42;12.10;;;2.93;;
23814;SDS011;12088;53.078;8.720;2023-12-22T10:03:09;11.53;;;2.57;;
23814;SDS011;12088;53.078;8.720;2023-12-22T10:05:36;13.30;;;2.57;;
23814;SDS011;12088;53.078;8.720;2023-12-22T10:08:02;13.57;;;2.47;;
23814;SDS011;12088;53.078;8.720;2023-12-22T10:10:30;9.63;;;2.50;;
23814;SDS011;12088;53.078;8.720;2023-12-22T10:12:56;12.97;;;2.17;;
23814;SDS011;12088;53.078;8.720;2023-12-22T10:15:23;13.47;;;2.30;;
23814;SDS011;12088;53.078;8.720;2023-12-22T10:17:52;9.30;;;2.40;;
23814;SDS011;12088;53.078;8.720;2023-12-22T10:20:19;14.93;;;2.53;;
23814;SDS011;12088;53.078;8.720;2023-12-22T10:22:45;16.10;;;3.43;;
23814;SDS011;12088;53.078;8.720;2023-12-22T10:25:14;15.23;;;2.27;;
23814;SDS011;12088;53.078;8.720;2023-12-22T10:27:42;13.00;;;2.30;;
23814;SDS011;12088;53.078;8.720;2023-12-22T10:30:08;10.40;;;2.00;;
23814;SDS011;12088;53.078;8.720;2023-12-22T10:32:39;17.23;;;3.00;;
23814;SDS011;12088;53.078;8.720;2023-12-22T10:35:07;11.23;;;3.47;;
23814;SDS011;12088;53.078;8.720;2023-12-22T10:37:33;12.10;;;2.83;;
23814;SDS011;12088;53.078;8.720;2023-12-22T10:39:59;10.00;;;2.20;;
23814;SDS011;12088;53.078;8.720;2023-12-22T10:42:25;10.60;;;2.20;;
23814;SDS011;12088;53.078;8.720;2023-12-22T10:44:51;9.27;;;2.07;;
23814;SDS011;12088;53.078;8.720;2023-12-22T10:47:18;12.10;;;2.97;;
23814;SDS011;12088;53.078;8.720;2023-12-22T10:49:46;13.63;;;2.53;;
23814;SDS011;12088;53.078;8.720;2023-12-22T10:52:15;8.83;;;2.20;;
23814;SDS011;12088;53.078;8.720;2023-12-22T10:54:42;5.47;;;1.50;;
23814;SDS011;12088;53.078;8.720;2023-12-22T10:57:09;9.70;;;2.60;;
23814;SDS011;12088;53.078;8.720;2023-12-22T10:59:36;11.10;;;2.20;;
23814;SDS011;12088;53.078;8.720;2023-12-22T11:02:03;11.67;;;2.03;;
23814;SDS011;12088;53.078;8.720;2023-12-22T11:04:30;7.53;;;1.70;;
23814;SDS011;12088;53.078;8.720;2023-12-22T11:06:57;8.43;;;1.93;;
23814;SDS011;12088;53.078;8.720;2023-12-22T11:09:24;12.63;;;1.97;;
23814;SDS011;12088;53.078;8.720;2023-12-22T11:11:52;12.53;;;2.53;;
23814;SDS011;12088;53.078;8.720;2023-12-22T11:14:18;12.93;;;2.07;;
23814;SDS011;12088;53.078;8.720;2023-12-22T11:16:45;13.57;;;2.13;;
23814;SDS011;12088;53.078;8.720;2023-12-22T11:19:13;11.10;;;2.27;;
23814;SDS011;12088;53.078;8.720;2023-12-22T11:21:40;6.60;;;2.20;;
23814;SDS011;12088;53.078;8.720;2023-12-22T11:24:06;12.23;;;2.40;;
23814;SDS011;12088;53.078;8.720;2023-12-22T11:26:32;11.20;;;3.03;;
23814;SDS011;12088;53.078;8.720;2023-12-22T11:28:59;14.67;;;2.60;;
23814;SDS011;12088;53.078;8.720;2023-12-22T11:31:28;11.40;;;2.20;;
23814;SDS011;12088;53.078;8.720;2023-12-22T11:33:57;15.03;;;2.43;;
23814;SDS011;12088;53.078;8.720;2023-12-22T11:36:27;12.67;;;2.50;;
23814;SDS011;12088;53.078;8.720;2023-12-22T11:38:55;9.67;;;2.10;;
23814;SDS011;12088;53.078;8.720;2023-12-22T11:41:25;11.13;;;2.57;;
23814;SDS011;12088;53.078;8.720;2023-12-22T11:43:52;15.07;;;2.50;;
23814;SDS011;12088;53.078;8.720;2023-12-22T11:46:18;10.73;;;3.30;;
23814;SDS011;12088;53.078;8.720;2023-12-22T11:48:48;17.43;;;3.13;;
23814;SDS011;12088;53.078;8.720;2023-12-22T11:51:14;10.07;;;2.40;;
23814;SDS011;12088;53.078;8.720;2023-12-22T11:53:40;6.40;;;2.13;;
23814;SDS011;12088;53.078;8.720;2023-12-22T11:56:07;7.53;;;2.03;;
23814;SDS011;12088;53.078;8.720;2023-12-22T12:01:09;11.73;;;2.50;;
23814;SDS011;12088;53.078;8.720;2023-12-22T12:03:35;19.87;;;2.63;;
23814;SDS011;12088;53.078;8.720;2023-12-22T12:09:06;10.53;;;2.47;;
23814;SDS011;12088;53.078;8.720;2023-12-22T12:14:36;8.77;;;2.07;;
23814;SDS011;12088;53.078;8.720;2023-12-22T12:17:05;12.73;;;2.13;;
23814;SDS011;12088;53.078;8.720;2023-12-22T12:19:36;12.10;;;3.57;;
23814;SDS011;12088;53.078;8.720;2023-12-22T12:22:02;13.90;;;2.37;;
23814;SDS011;12088;53.078;8.720;2023-12-22T12:24:29;13.13;;;2.80;;
23814;SDS011;12088;53.078;8.720;2023-12-22T12:26:55;11.90;;;2.60;;
23814;SDS011;12088;53.078;8.720;2023-12-22T12:29:21;12.47;;;3.10;;
23814;SDS011;12088;53.078;8.720;2023-12-22T12:31:47;8.00;;;2.53;;
23814;SDS011;12088;53.078;8.720;2023-12-22T12:34:14;12.33;;;2.97;;
23814;SDS011;12088;53.078;8.720;2023-12-22T12:36:42;11.07;;;2.93;;
23814;SDS011;12088;53.078;8.720;2023-12-22T12:39:08;11.23;;;2.53;;
23814;SDS011;12088;53.078;8.720;2023-12-22T12:41:36;12.77;;;2.57;;
23814;SDS011;12088;53.078;8.720;2023-12-22T12:44:06;13.93;;;2.23;;
23814;SDS011;12088;53.078;8.720;2023-12-22T12:46:35;11.60;;;2.37;;
23814;SDS011;12088;53.078;8.720;2023-12-22T12:49:05;9.87;;;2.50;;
23814;SDS011;12088;53.078;8.720;2023-12-22T12:51:38;9.17;;;2.10;;
23814;SDS011;12088;53.078;8.720;2023-12-22T12:54:05;15.27;;;2.17;;
23814;SDS011;12088;53.078;8.720;2023-12-22T12:56:41;12.13;;;2.50;;
23814;SDS011;12088;53.078;8.720;2023-12-22T12:59:11;16.53;;;2.70;;
23814;SDS011;12088;53.078;8.720;2023-12-22T13:01:38;13.13;;;2.43;;
23814;SDS011;12088;53.078;8.720;2023-12-22T13:04:04;9.93;;;2.73;;
23814;SDS011;12088;53.078;8.720;2023-12-22T13:06:31;15.53;;;2.80;;
23814;SDS011;12088;53.078;8.720;2023-12-22T13:08:57;15.53;;;2.73;;
23814;SDS011;12088;53.078;8.720;2023-12-22T13:11:24;11.33;;;2.53;;
23814;SDS011;12088;53.078;8.720;2023-12-22T13:13:51;10.57;;;2.80;;
23814;SDS011;12088;53.078;8.720;2023-12-22T13:16:18;9.77;;;2.27;;
23814;SDS011;12088;53.078;8.720;2023-12-22T13:18:45;7.77;;;2.33;;
23814;SDS011;12088;53.078;8.720;2023-12-22T13:21:11;10.67;;;2.40;;
23814;SDS011;12088;53.078;8.720;2023-12-22T13:23:37;13.47;;;1.83;;
23814;SDS011;12088;53.078;8.720;2023-12-22T13:26:03;7.43;;;1.77;;
23814;SDS011;12088;53.078;8.720;2023-12-22T13:28:29;11.40;;;2.57;;
23814;SDS011;12088;53.078;8.720;2023-12-22T13:30:55;12.30;;;2.20;;
23814;SDS011;12088;53.078;8.720;2023-12-22T13:33:21;11.50;;;2.20;;
23814;SDS011;12088;53.078;8.720;2023-12-22T13:35:49;10.50;;;2.10;;
23814;SDS011;12088;53.078;8.720;2023-12-22T13:38:15;14.27;;;2.20;;
23814;SDS011;12088;53.078;8.720;2023-12-22T13:40:44;5.53;;;1.70;;
23814;SDS011;12088;53.078;8.720;2023-12-22T13:43:13;8.97;;;2.60;;
23814;SDS011;12088;53.078;8.720;2023-12-22T13:45:39;9.87;;;2.47;;
23814;SDS011;12088;53.078;8.720;2023-12-22T13:48:06;9.23;;;2.43;;
23814;SDS011;12088;53.078;8.720;2023-12-22T13:50:33;11.30;;;2.57;;
23814;SDS011;12088;53.078;8.720;2023-12-22T13:53:10;8.80;;;2.20;;
23814;SDS011;12088;53.078;8.720;2023-12-22T13:55:37;10.63;;;2.13;;
23814;SDS011;12088;53.078;8.720;2023-12-22T13:58:04;9.13;;;2.43;;
23814;SDS011;12088;53.078;8.720;2023-12-22T14:00:30;8.10;;;1.70;;
23814;SDS011;12088;53.078;8.720;2023-12-22T14:02:56;5.37;;;1.40;;
23814;SDS011;12088;53.078;8.720;2023-12-22T14:05:23;5.77;;;2.07;;
23814;SDS011;12088;53.078;8.720;2023-12-22T14:07:49;10.07;;;1.60;;
23814;SDS011;12088;53.078;8.720;2023-12-22T14:10:15;5.93;;;1.57;;
23814;SDS011;12088;53.078;8.720;2023-12-22T14:12:41;9.13;;;2.40;;
23814;SDS011;12088;53.078;8.720;2023-12-22T14:15:09;7.47;;;1.97;;
23814;SDS011;12088;53.078;8.720;2023-12-22T14:17:35;8.67;;;1.80;;
23814;SDS011;12088;53.078;8.720;2023-12-22T14:20:01;9.70;;;1.50;;
23814;SDS011;12088;53.078;8.720;2023-12-22T14:22:29;7.80;;;1.87;;
23814;SDS011;12088;53.078;8.720;2023-12-22T14:24:56;8.80;;;1.70;;
23814;SDS011;12088;53.078;8.720;2023-12-22T14:27:23;3.90;;;1.50;;
23814;SDS011;12088;53.078;8.720;2023-12-22T14:29:49;4.93;;;1.13;;
23814;SDS011;12088;53.078;8.720;2023-12-22T14:32:15;1.67;;;1.03;;
23814;SDS011;12088;53.078;8.720;2023-12-22T14:34:43;3.67;;;1.00;;
23814;SDS011;12088;53.078;8.720;2023-12-22T14:37:10;2.43;;;1.20;;
23814;SDS011;12088;53.078;8.720;2023-12-22T14:39:36;5.00;;;1.93;;
23814;SDS011;12088;53.078;8.720;2023-12-22T14:42:02;4.47;;;1.43;;
23814;SDS011;12088;53.078;8.720;2023-12-22T14:44:28;4.70;;;1.90;;
23814;SDS011;12088;53.078;8.720;2023-12-22T14:46:54;6.20;;;1.70;;